Time;durP1;ratioP1;P1;durP2;ratioP2;P2;SDS_P1;SDS_P2;PMS_P1;PMS_P2;Temp;Humidity;BMP_temperature;BMP_pressure;BME280_temperature;BME280_humidity;BME280_pressure;Samples;Min_cycle;Max_cycle;Signal;HPM_P1;HPM_P2
2022/10/17 00:00:52;;;;;;;6.90;4.30;;;;;;;22.96;36.31;101114.69;4200422;28;20101;-62
2022/10/17 00:02:55;;;;;;;10.70;4.30;;;;;;;22.99;36.50;101119.66;4198478;28;20074;-62
2022/10/17 00:04:59;;;;;;;5.97;4.07;;;;;;;23.00;36.67;101121.31;4198295;28;20063;-61
2022/10/17 00:07:03;;;;;;;14.40;4.57;;;;;;;22.95;36.56;101110.19;4199408;28;20105;-62
2022/10/17 00:09:04;;;;;;;6.47;4.90;;;;;;;22.99;36.94;101114.06;4199728;28;20540;-61
2022/10/17 00:11:08;;;;;;;9.25;4.55;;;;;;;22.95;36.57;101113.00;4200162;28;20273;-61
2022/10/17 00:13:10;;;;;;;6.97;4.70;;;;;;;22.95;36.86;101110.19;4199301;28;20040;-61
2022/10/17 00:15:16;;;;;;;8.73;4.68;;;;;;;22.98;36.75;101121.63;4192107;28;20495;-62
2022/10/17 00:17:18;;;;;;;9.85;4.63;;;;;;;23.00;36.91;101112.94;4198435;28;20098;-61
2022/10/17 00:19:19;;;;;;;8.13;4.25;;;;;;;23.00;36.81;101115.75;4196318;28;20032;-61
2022/10/17 00:21:24;;;;;;;5.82;4.00;;;;;;;23.00;36.82;101112.94;4200263;28;20037;-62
2022/10/17 00:23:27;;;;;;;;;;;;;;;22.98;37.13;101102.09;4199585;28;20044;-61
2022/10/17 00:25:28;;;;;;;7.40;4.00;;;;;;;23.05;36.94;101107.34;4188066;28;19920;-61
2022/10/17 00:27:30;;;;;;;6.47;4.55;;;;;;;23.05;36.70;101112.94;4196410;28;20053;-61
2022/10/17 00:29:31;;;;;;;6.05;4.03;;;;;;;23.02;36.80;101108.75;4195978;28;20028;-61
2022/10/17 00:31:32;;;;;;;5.85;3.80;;;;;;;23.04;37.10;101114.03;4199101;28;20059;-61
2022/10/17 00:33:35;;;;;;;8.25;4.13;;;;;;;22.87;36.90;101088.50;4186706;28;20049;-62
2022/10/17 00:35:36;;;;;;;6.50;4.18;;;;;;;23.03;37.03;101106.78;4194565;28;20078;-62
2022/10/17 00:37:37;;;;;;;6.70;4.57;;;;;;;23.00;37.24;101110.16;4193738;28;20110;-61
2022/10/17 00:39:39;;;;;;;6.78;4.55;;;;;;;23.02;36.86;101110.72;4194412;28;20036;-61
2022/10/17 00:41:40;;;;;;;7.50;3.97;;;;;;;22.96;36.91;101098.75;4191112;28;20491;-63
2022/10/17 00:43:58;;;;;;;8.57;3.70;;;;;;;23.01;37.09;101107.09;4183475;28;20464;-63
2022/10/17 00:46:02;;;;;;;6.85;3.72;;;;;;;23.03;36.79;101102.03;4184416;28;20078;-62
2022/10/17 00:48:07;;;;;;;6.80;3.70;;;;;;;23.03;37.26;101095.63;4184785;28;20107;-63
2022/10/17 00:50:10;;;;;;;5.53;3.67;;;;;;;23.04;36.87;101092.53;4184347;28;20033;-62
2022/10/17 00:52:18;;;;;;;5.97;3.47;;;;;;;23.04;37.19;101086.13;4183574;28;20079;-62
2022/10/17 00:54:29;;;;;;;6.15;3.35;;;;;;;23.06;37.58;101090.31;4196003;28;20434;-62
2022/10/17 00:56:31;;;;;;;6.28;3.90;;;;;;;23.10;38.18;101082.19;4198979;28;20029;-62
2022/10/17 00:58:33;;;;;;;6.15;3.55;;;;;;;23.12;38.15;101079.91;4198072;28;20044;-63
2022/10/17 01:00:37;;;;;;;5.32;3.63;;;;;;;23.13;38.28;101084.38;4199813;28;20121;-62
2022/10/17 01:02:38;;;;;;;4.63;3.67;;;;;;;23.13;37.98;101084.38;4199633;28;20033;-62
2022/10/17 01:04:43;;;;;;;7.70;4.03;;;;;;;23.02;37.83;101063.28;4188317;28;20033;-63
2022/10/17 01:06:47;;;;;;;6.32;3.90;;;;;;;23.14;37.80;101072.09;4198530;28;20037;-62
2022/10/17 01:08:51;;;;;;;23.07;4.90;;;;;;;23.14;37.98;101063.72;4193967;28;20037;-62
2022/10/17 01:11:20;;;;;;;15.23;4.70;;;;;;;23.13;37.71;101056.47;4184988;28;20511;-64
2022/10/17 01:13:33;;;;;;;7.47;4.10;;;;;;;23.06;37.95;101054.03;4184910;28;20037;-64
2022/10/17 01:15:51;;;;;;;7.40;4.00;;;;;;;23.16;37.70;101058.66;4182483;28;20486;-64
2022/10/17 01:18:17;;;;;;;7.72;4.03;;;;;;;22.92;37.74;101021.50;4184364;28;20045;-64
2022/10/17 01:21:03;;;;;;;8.80;4.45;;;;;;;22.94;37.60;101024.81;4188072;28;20098;-65
2022/10/17 01:23:31;;;;;;;7.20;4.00;;;;;;;23.18;38.15;101047.19;4196857;28;20090;-63
2022/10/17 01:25:51;;;;;;;8.05;4.55;;;;;;;23.20;38.12;101048.59;4189551;28;21139;-64
2022/10/17 01:28:19;;;;;;;8.45;4.50;;;;;;;23.18;37.76;101047.19;4195907;28;20044;-64
2022/10/17 01:30:41;;;;;;;7.63;4.10;;;;;;;23.18;37.81;101045.25;4199306;28;20456;-63
2022/10/17 01:32:45;;;;;;;7.90;4.82;;;;;;;23.18;38.18;101036.03;4198363;28;20036;-64
2022/10/17 01:34:55;;;;;;;7.15;4.28;;;;;;;23.15;38.16;101040.25;4199125;28;20021;-63
2022/10/17 01:37:30;;;;;;;10.10;4.78;;;;;;;23.13;37.88;101050.88;4184235;28;20052;-63
2022/10/17 01:39:47;;;;;;;9.98;4.65;;;;;;;23.15;37.98;101062.59;4172585;28;20098;-64
2022/10/17 01:42:17;;;;;;;6.80;4.50;;;;;;;23.12;38.15;101057.59;4182784;28;20028;-64
2022/10/17 01:44:26;;;;;;;9.57;4.30;;;;;;;23.11;38.12;101061.50;4190451;28;20033;-64
2022/10/17 01:46:42;;;;;;;7.68;4.97;;;;;;;23.15;38.25;101081.31;4194260;28;20106;-65
2022/10/17 01:48:48;;;;;;;10.50;4.40;;;;;;;23.15;38.04;101084.94;4194889;28;20552;-63
2022/10/17 01:50:54;;;;;;;11.02;4.80;;;;;;;23.16;38.27;101086.59;4197436;28;20090;-64
2022/10/17 01:53:20;;;;;;;9.23;4.38;;;;;;;23.16;38.14;101083.78;4192881;28;20086;-63
2022/10/17 01:55:44;;;;;;;9.75;4.85;;;;;;;23.15;38.07;101084.94;4195533;28;20098;-63
2022/10/17 01:57:56;;;;;;;21.67;4.95;;;;;;;23.21;38.24;101083.75;4196199;28;20036;-62
2022/10/17 02:00:02;;;;;;;12.13;6.18;;;;;;;23.24;38.21;101083.16;4190139;28;20055;-63
2022/10/17 02:02:05;;;;;;;13.13;5.60;;;;;;;23.22;38.38;101079.81;4194785;28;20422;-63
2022/10/17 02:04:09;;;;;;;12.02;5.38;;;;;;;23.24;38.25;101073.97;4190621;28;20090;-61
2022/10/17 02:06:10;;;;;;;10.70;4.40;;;;;;;23.26;38.01;101069.75;4195711;28;20044;-61
2022/10/17 02:08:23;;;;;;;8.32;4.65;;;;;;;23.12;38.10;101052.00;4195802;28;20109;-62
2022/10/17 02:10:37;;;;;;;8.15;4.10;;;;;;;23.29;38.01;101080.34;4191938;28;20041;-63
2022/10/17 02:13:23;;;;;;;7.90;4.15;;;;;;;23.14;37.91;101046.97;4198858;28;20425;-63
2022/10/17 02:15:33;;;;;;;9.15;4.10;;;;;;;23.37;37.70;101069.63;4184173;28;20540;-61
2022/10/17 02:17:44;;;;;;;8.63;3.92;;;;;;;23.36;37.89;101063.22;4191509;28;20052;-62
2022/10/17 02:20:08;;;;;;;7.05;3.58;;;;;;;23.39;37.80;101067.41;4192483;28;20560;-61
2022/10/17 02:22:19;;;;;;;9.25;4.13;;;;;;;23.40;38.01;101057.88;4190409;28;20106;-62
2022/10/17 02:24:23;;;;;;;10.60;4.22;;;;;;;23.42;38.00;101050.06;4191931;28;20431;-62
2022/10/17 02:26:37;;;;;;;8.15;3.65;;;;;;;23.38;38.08;101038.63;4190086;28;20044;-62
2022/10/17 02:29:09;;;;;;;7.00;3.90;;;;;;;23.40;37.93;101047.53;4191970;28;20102;-61
2022/10/17 02:31:23;;;;;;;9.18;4.47;;;;;;;23.43;37.99;101043.34;4188412;28;20048;-62
2022/10/17 02:33:37;;;;;;;5.75;4.30;;;;;;;23.43;37.62;101046.97;4188557;28;20066;-62
2022/10/17 02:35:47;;;;;;;7.05;4.03;;;;;;;23.36;38.06;101026.09;4195804;28;20045;-62
2022/10/17 02:37:50;;;;;;;7.72;3.95;;;;;;;23.46;38.12;101056.69;4196539;28;20052;-62
2022/10/17 02:39:56;;;;;;;5.15;3.65;;;;;;;23.45;38.40;101055.03;4195501;28;20066;-62
2022/10/17 02:42:02;;;;;;;6.70;3.70;;;;;;;23.45;38.28;101046.66;4189851;28;20426;-61
2022/10/17 02:44:05;;;;;;;7.38;4.20;;;;;;;23.46;37.87;101035.22;4187609;28;20028;-62
2022/10/17 02:46:07;;;;;;;6.15;4.28;;;;;;;23.47;37.95;101044.41;4194037;28;20036;-62
2022/10/17 02:48:15;;;;;;;6.22;3.63;;;;;;;23.47;38.47;101042.44;4197966;28;20110;-62
2022/10/17 02:50:21;;;;;;;7.22;4.50;;;;;;;23.48;38.40;101032.09;4209917;28;20433;-62
2022/10/17 02:52:58;;;;;;;6.03;3.78;;;;;;;23.46;38.13;101035.22;4197630;28;20489;-61
2022/10/17 02:55:07;;;;;;;5.82;3.72;;;;;;;23.28;38.22;101011.66;4194846;28;20048;-62
2022/10/17 02:57:21;;;;;;;6.78;3.80;;;;;;;23.49;38.33;101040.19;4197947;28;20052;-62
2022/10/17 02:59:25;;;;;;;7.30;3.78;;;;;;;23.49;38.13;101033.75;4198154;28;20117;-62
2022/10/17 03:01:29;;;;;;;6.07;3.70;;;;;;;23.50;37.97;101035.41;4194633;28;20357;-61
2022/10/17 03:03:33;;;;;;;8.88;4.03;;;;;;;23.49;37.84;101026.22;4196770;28;20040;-61
2022/10/17 03:05:37;;;;;;;5.70;3.42;;;;;;;23.47;38.22;101025.69;4195617;28;20078;-62
2022/10/17 03:07:38;;;;;;;7.45;3.75;;;;;;;23.50;38.07;101033.50;4192712;28;20036;-62
2022/10/17 03:09:39;;;;;;;5.88;3.53;;;;;;;23.30;38.00;100989.84;4196923;28;20056;-61
2022/10/17 03:11:41;;;;;;;6.97;3.70;;;;;;;23.38;38.08;100993.13;4199436;28;20036;-61
2022/10/17 03:13:45;;;;;;;4.97;3.55;;;;;;;23.49;38.43;101012.25;4197490;28;20043;-60
2022/10/17 03:15:46;;;;;;;5.55;3.50;;;;;;;23.49;37.96;101003.03;4181259;28;20037;-61
2022/10/17 03:17:47;;;;;;;6.03;3.17;;;;;;;23.45;38.29;100997.22;4191289;28;20094;-60
2022/10/17 03:19:49;;;;;;;6.97;4.20;;;;;;;23.50;38.23;100997.19;4197323;28;20093;-61
2022/10/17 03:21:50;;;;;;;7.13;3.50;;;;;;;23.50;38.40;100987.94;4192716;28;20478;-61
2022/10/17 03:23:51;;;;;;;6.18;3.47;;;;;;;23.50;38.40;100979.56;4210071;28;20077;-61
2022/10/17 03:25:52;;;;;;;7.05;3.58;;;;;;;23.51;38.62;100981.25;4214167;28;20441;-61
2022/10/17 03:27:56;;;;;;;5.60;3.75;;;;;;;23.50;38.26;100983.22;4196136;28;20101;-61
2022/10/17 03:29:57;;;;;;;6.60;3.45;;;;;;;23.51;38.37;100976.50;4196878;28;20033;-61
2022/10/17 03:31:58;;;;;;;7.00;3.63;;;;;;;23.50;38.40;100979.56;4197117;28;20036;-62
2022/10/17 03:34:01;;;;;;;12.82;4.20;;;;;;;23.49;38.38;100983.50;4197125;28;20113;-61
2022/10/17 03:36:08;;;;;;;7.88;3.67;;;;;;;23.34;38.90;100960.22;4191635;28;20032;-62
2022/10/17 03:38:12;;;;;;;11.52;5.50;;;;;;;23.52;39.03;100977.31;4191682;28;20040;-62
2022/10/17 03:40:13;;;;;;;248.57;175.87;;;;;;;23.52;38.54;100978.16;4189621;28;20079;-62
2022/10/17 03:42:14;;;;;;;122.93;82.28;;;;;;;23.51;38.44;100967.28;4194436;28;20457;-61
2022/10/17 03:44:16;;;;;;;65.70;45.78;;;;;;;23.49;38.78;100956.41;4189304;28;20036;-62
2022/10/17 03:46:20;;;;;;;53.40;31.30;;;;;;;23.46;38.33;100956.16;4193054;28;20024;-62
2022/10/17 03:48:21;;;;;;;30.95;22.23;;;;;;;23.45;38.59;100948.91;4192724;28;20048;-62
2022/10/17 03:50:22;;;;;;;24.20;17.60;;;;;;;23.43;38.39;100948.38;4206524;28;20142;-62
2022/10/17 03:52:23;;;;;;;25.85;17.30;;;;;;;23.42;38.57;100952.31;4197064;28;20036;-62
2022/10/17 03:54:25;;;;;;;22.55;16.30;;;;;;;23.40;38.77;100946.19;4196861;28;20045;-62
2022/10/17 03:56:26;;;;;;;26.42;17.17;;;;;;;23.34;38.56;100932.28;4197683;28;20041;-62
2022/10/17 03:58:28;;;;;;;25.23;15.90;;;;;;;23.38;38.56;100931.69;4197605;28;20501;-62
2022/10/17 04:00:29;;;;;;;23.05;15.77;;;;;;;23.37;38.31;100932.81;4197663;28;20090;-62
2022/10/17 04:02:30;;;;;;;21.88;15.63;;;;;;;23.36;38.34;100931.16;4197616;28;20463;-62
2022/10/17 04:04:31;;;;;;;22.80;15.20;;;;;;;23.34;38.36;100931.44;4196415;28;20041;-62
2022/10/17 04:06:33;;;;;;;21.15;14.35;;;;;;;23.28;38.84;100922.31;4197202;28;20044;-62
2022/10/17 04:08:35;;;;;;;20.88;13.07;;;;;;;23.31;38.59;100932.88;4197279;28;20078;-62
2022/10/17 04:10:36;;;;;;;17.42;12.27;;;;;;;23.23;38.50;100918.72;4196475;28;20051;-62
2022/10/17 04:12:37;;;;;;;18.50;12.35;;;;;;;23.03;38.62;100889.94;4196234;28;20036;-62
2022/10/17 04:14:39;;;;;;;19.05;12.25;;;;;;;23.30;39.02;100938.75;4196824;28;20029;-62
2022/10/17 04:16:40;;;;;;;19.33;11.48;;;;;;;23.29;38.53;100932.34;4196484;28;20045;-62
2022/10/17 04:18:43;;;;;;;16.42;11.60;;;;;;;23.21;38.84;100930.19;4196136;28;20036;-62
2022/10/17 04:20:47;;;;;;;14.88;10.93;;;;;;;23.22;38.72;100933.81;4196111;28;20437;-63
2022/10/17 04:22:48;;;;;;;17.35;10.48;;;;;;;23.10;38.69;100908.31;4197180;28;20032;-62
2022/10/17 04:24:49;;;;;;;13.93;10.32;;;;;;;23.28;38.86;100933.47;4196994;28;20078;-62
2022/10/17 04:26:51;;;;;;;13.32;10.13;;;;;;;23.28;38.94;100929.88;4197438;28;20090;-62
2022/10/17 04:28:55;;;;;;;15.18;9.75;;;;;;;23.22;39.28;100917.91;4197358;28;20083;-62
2022/10/17 04:31:02;;;;;;;13.83;9.13;;;;;;;23.25;39.06;100922.91;4197916;28;20032;-62
2022/10/17 04:33:03;;;;;;;13.00;8.73;;;;;;;23.25;39.04;100922.91;4197088;28;20278;-62
2022/10/17 04:35:05;;;;;;;10.70;8.88;;;;;;;23.24;39.22;100915.66;4197199;28;20081;-63
2022/10/17 04:37:09;;;;;;;13.35;9.10;;;;;;;23.24;39.29;100924.03;4197337;28;20092;-62
2022/10/17 04:39:10;;;;;;;12.07;8.85;;;;;;;23.23;39.14;100908.41;4197412;28;20078;-62
2022/10/17 04:41:17;;;;;;;14.60;7.72;;;;;;;23.20;38.94;100903.41;4198014;28;20482;-62
2022/10/17 04:43:21;;;;;;;8.50;6.85;;;;;;;22.98;39.22;100864.03;4199323;28;20498;-62
2022/10/17 04:45:22;;;;;;;12.68;8.27;;;;;;;23.22;39.16;100901.16;4199724;28;20041;-62
2022/10/17 04:47:26;;;;;;;10.23;7.38;;;;;;;23.23;39.27;100908.41;4199696;28;20433;-62
2022/10/17 04:49:27;;;;;;;10.30;7.60;;;;;;;23.21;39.37;100899.50;4198635;28;20090;-62
2022/10/17 04:51:29;;;;;;;11.52;7.85;;;;;;;23.14;39.19;100876.72;4207970;28;20036;-62
2022/10/17 04:53:31;;;;;;;10.27;7.88;;;;;;;23.20;39.58;100883.06;4216554;28;20070;-62
2022/10/17 04:55:37;;;;;;;9.80;7.50;;;;;;;23.21;39.69;100888.31;4216825;28;20032;-62
2022/10/17 04:57:38;;;;;;;9.50;6.95;;;;;;;23.21;39.50;100888.31;4216388;28;20047;-62
2022/10/17 04:59:39;;;;;;;11.52;6.35;;;;;;;23.19;39.73;100873.84;4216541;28;20486;-62
2022/10/17 05:01:41;;;;;;;9.27;6.50;;;;;;;23.21;39.42;100885.53;4216641;28;20047;-62
2022/10/17 05:03:43;;;;;;;8.25;5.78;;;;;;;23.20;39.52;100877.47;4216201;28;20478;-62
2022/10/17 05:05:44;;;;;;;9.57;6.50;;;;;;;23.20;39.51;100869.09;4215126;28;20036;-62
2022/10/17 05:07:45;;;;;;;9.73;6.25;;;;;;;23.20;39.62;100869.09;4206266;28;20467;-62
2022/10/17 05:09:46;;;;;;;8.82;6.07;;;;;;;23.20;39.54;100864.34;4199829;28;20036;-62
2022/10/17 05:11:48;;;;;;;7.88;5.68;;;;;;;23.19;39.93;100870.22;4198704;28;20048;-62
2022/10/17 05:13:57;;;;;;;8.60;5.53;;;;;;;23.18;39.82;100866.56;4198640;28;20054;-63
2022/10/17 05:16:02;;;;;;;9.40;5.78;;;;;;;22.92;39.76;100817.81;4199600;28;20045;-62
2022/10/17 05:18:05;;;;;;;8.27;5.93;;;;;;;23.18;39.69;100861.00;4199758;28;20041;-62
2022/10/17 05:20:10;;;;;;;7.97;5.45;;;;;;;23.18;39.74;100861.00;4199280;28;20036;-62
2022/10/17 05:22:14;;;;;;;6.60;5.03;;;;;;;23.15;40.07;100853.25;4200257;28;20040;-62
2022/10/17 05:24:15;;;;;;;7.47;5.05;;;;;;;23.18;39.89;100868.53;4199386;28;20087;-62
2022/10/17 05:26:17;;;;;;;8.00;5.40;;;;;;;23.16;39.94;100857.69;4199070;28;20037;-62
2022/10/17 05:28:18;;;;;;;8.55;5.13;;;;;;;23.19;39.99;100857.09;4199252;28;20426;-62
2022/10/17 05:30:20;;;;;;;6.43;5.20;;;;;;;23.18;40.12;100849.84;4199417;28;20434;-62
2022/10/17 05:32:24;;;;;;;6.20;4.72;;;;;;;23.17;40.52;100850.97;4199052;28;20475;-62
2022/10/17 05:34:25;;;;;;;8.25;5.28;;;;;;;22.93;40.18;100819.47;4198891;28;20032;-62
2022/10/17 05:36:27;;;;;;;7.93;4.78;;;;;;;23.17;40.45;100848.19;4199599;28;20070;-62
2022/10/17 05:38:28;;;;;;;7.63;4.68;;;;;;;23.18;40.42;100832.25;4190491;28;20545;-62
2022/10/17 05:40:29;;;;;;;5.75;3.90;;;;;;;23.19;40.60;100839.53;4199425;28;20479;-62
2022/10/17 05:42:31;;;;;;;10.57;4.57;;;;;;;23.17;40.65;100841.75;4199066;28;20044;-62
2022/10/17 05:44:32;;;;;;;6.65;4.63;;;;;;;23.14;40.51;100823.66;4199169;28;20046;-62
2022/10/17 05:46:33;;;;;;;5.95;4.50;;;;;;;23.18;40.51;100816.34;4199360;28;20102;-62
2022/10/17 05:48:35;;;;;;;8.23;5.00;;;;;;;23.16;40.75;100823.34;4198967;28;20045;-62
2022/10/17 05:50:43;;;;;;;7.22;4.53;;;;;;;23.15;40.83;100822.53;4199398;28;20074;-62
2022/10/17 05:52:44;;;;;;;7.22;4.45;;;;;;;23.15;40.57;100822.53;4198459;28;20048;-63
2022/10/17 05:54:45;;;;;;;7.25;4.53;;;;;;;23.16;40.90;100823.34;4198872;28;20040;-62
2022/10/17 05:56:51;;;;;;;7.25;4.65;;;;;;;23.15;40.95;100816.94;4199658;28;20090;-61
2022/10/17 05:58:55;;;;;;;6.55;4.15;;;;;;;23.16;41.04;100809.41;4198885;28;20048;-61
2022/10/17 06:00:58;;;;;;;4.72;3.90;;;;;;;23.16;40.94;100813.03;4199077;28;20427;-62
2022/10/17 06:03:02;;;;;;;5.40;4.35;;;;;;;23.13;40.69;100796.88;4199062;28;20036;-61
2022/10/17 06:05:03;;;;;;;7.15;4.82;;;;;;;23.15;41.20;100797.41;4198453;28;20041;-61
2022/10/17 06:07:05;;;;;;;6.28;4.60;;;;;;;23.13;41.13;100785.69;4199162;28;20341;-62
2022/10/17 06:09:07;;;;;;;5.45;4.22;;;;;;;23.05;41.11;100775.22;4198573;28;20078;-61
2022/10/17 06:11:08;;;;;;;6.00;4.10;;;;;;;23.15;41.46;100788.22;4199089;28;20181;-62
2022/10/17 06:13:12;;;;;;;5.15;4.03;;;;;;;23.14;41.35;100784.59;4196707;28;20123;-61
2022/10/17 06:15:13;;;;;;;5.53;3.78;;;;;;;23.13;41.48;100785.69;4212954;28;20098;-62
2022/10/17 06:17:15;;;;;;;5.25;4.15;;;;;;;23.15;41.17;100785.41;4215721;28;20077;-62
2022/10/17 06:19:16;;;;;;;5.55;3.78;;;;;;;23.15;41.57;100786.25;4215518;28;20036;-62
2022/10/17 06:21:23;;;;;;;7.13;4.30;;;;;;;23.15;41.56;100777.88;4215208;28;20044;-63
2022/10/17 06:23:26;;;;;;;6.38;4.32;;;;;;;23.15;41.42;100772.28;4209542;28;20536;-62
2022/10/17 06:25:30;;;;;;;5.05;3.72;;;;;;;23.16;41.40;100765.56;4197678;28;20490;-62
2022/10/17 06:27:31;;;;;;;5.88;3.92;;;;;;;23.17;41.39;100753.28;4198611;28;20048;-63
2022/10/17 06:29:33;;;;;;;5.60;3.67;;;;;;;23.16;41.60;100754.41;4184669;28;20045;-63
2022/10/17 06:31:34;;;;;;;4.80;3.13;;;;;;;22.95;41.77;100723.16;4198072;28;20050;-61
2022/10/17 06:33:39;;;;;;;4.15;3.35;;;;;;;23.15;41.50;100746.34;4198533;28;20101;-61
2022/10/17 06:35:40;;;;;;;5.22;3.60;;;;;;;22.96;41.74;100726.78;4198198;28;20640;-61
2022/10/17 06:37:44;;;;;;;6.97;4.28;;;;;;;23.18;41.62;100763.28;4198265;28;20086;-62
2022/10/17 06:39:45;;;;;;;7.80;4.03;;;;;;;23.17;41.77;100755.22;4198567;28;20045;-62
2022/10/17 06:41:49;;;;;;;4.90;3.35;;;;;;;23.17;41.48;100770.00;4198158;28;20036;-62
2022/10/17 06:43:50;;;;;;;5.45;3.67;;;;;;;23.20;41.67;100775.00;4198039;28;20101;-62
2022/10/17 06:45:54;;;;;;;5.70;3.80;;;;;;;23.02;41.77;100750.69;4197869;28;20048;-63
2022/10/17 06:47:56;;;;;;;5.68;3.67;;;;;;;23.20;41.85;100786.19;4198029;28;20078;-62
2022/10/17 06:49:57;;;;;;;5.32;3.80;;;;;;;23.20;42.06;100786.19;4197870;28;20114;-62
2022/10/17 06:51:58;;;;;;;6.57;3.40;;;;;;;22.98;41.83;100744.06;4197787;28;20118;-62
2022/10/17 06:54:03;;;;;;;6.88;3.60;;;;;;;23.20;42.13;100780.59;4197579;28;20105;-61
2022/10/17 06:56:06;;;;;;;4.53;3.45;;;;;;;23.10;41.84;100752.81;4197544;28;20086;-63
2022/10/17 06:58:07;;;;;;;5.50;3.42;;;;;;;23.17;41.77;100753.28;4198115;28;20394;-62
2022/10/17 07:00:15;;;;;;;5.32;3.80;;;;;;;23.20;42.10;100763.84;4197959;28;20044;-62
2022/10/17 07:02:16;;;;;;;4.35;3.50;;;;;;;23.19;42.13;100753.81;4197763;28;20052;-62
2022/10/17 07:04:17;;;;;;;5.13;3.65;;;;;;;23.19;42.29;100751.03;4205630;28;20044;-63
2022/10/17 07:06:19;;;;;;;7.15;3.58;;;;;;;23.19;42.23;100734.28;4214358;28;20040;-63
2022/10/17 07:08:21;;;;;;;4.63;3.22;;;;;;;23.19;42.36;100722.28;4205535;28;20098;-63
2022/10/17 07:10:22;;;;;;;4.60;3.38;;;;;;;23.11;41.97;100709.00;4197926;28;20094;-63
2022/10/17 07:12:23;;;;;;;4.47;3.38;;;;;;;23.19;42.19;100711.13;4197663;28;20048;-63
2022/10/17 07:14:30;;;;;;;4.43;3.60;;;;;;;23.18;42.35;100718.63;4197214;28;20102;-63
2022/10/17 07:16:32;;;;;;;5.07;3.40;;;;;;;23.18;41.92;100721.41;4197569;28;20040;-62
2022/10/17 07:18:34;;;;;;;3.47;3.05;;;;;;;23.17;42.31;100708.59;4197096;28;20114;-62
2022/10/17 07:20:35;;;;;;;5.55;3.17;;;;;;;23.17;42.13;100703.03;4196856;28;20044;-62
2022/10/17 07:22:36;;;;;;;4.72;3.17;;;;;;;23.16;42.48;100701.38;4198469;28;20044;-62
2022/10/17 07:24:38;;;;;;;3.95;2.92;;;;;;;23.16;42.21;100683.78;4207016;28;20086;-62
2022/10/17 07:26:39;;;;;;;9.02;3.85;;;;;;;23.16;42.20;100684.63;4196750;28;20553;-62
2022/10/17 07:28:42;;;;;;;4.60;3.30;;;;;;;22.90;42.21;100641.47;4197885;28;20085;-62
2022/10/17 07:30:46;;;;;;;4.57;3.35;;;;;;;23.04;42.52;100668.31;4197812;28;20110;-62
2022/10/17 07:32:50;;;;;;;5.57;3.40;;;;;;;23.12;42.68;100691.09;4197792;28;20555;-62
2022/10/17 07:34:52;;;;;;;4.43;3.30;;;;;;;23.15;42.66;100699.72;4197561;28;20037;-62
2022/10/17 07:36:53;;;;;;;4.15;3.22;;;;;;;23.16;42.52;100693.00;4198035;28;20033;-62
2022/10/17 07:38:55;;;;;;;4.63;3.40;;;;;;;22.98;42.48;100654.75;4210153;28;20036;-62
2022/10/17 07:40:57;;;;;;;5.35;3.25;;;;;;;23.16;42.40;100687.41;4196833;28;20062;-62
2022/10/17 07:42:59;;;;;;;4.90;3.47;;;;;;;23.15;42.53;100662.59;4196412;28;20040;-62
2022/10/17 07:45:04;;;;;;;3.80;3.00;;;;;;;23.17;42.36;100669.53;4210483;28;20081;-62
2022/10/17 07:47:05;;;;;;;4.60;3.22;;;;;;;23.17;42.43;100669.53;4214358;28;20089;-62
2022/10/17 07:49:06;;;;;;;3.75;2.78;;;;;;;23.17;42.60;100663.94;4213798;28;20032;-62
2022/10/17 07:51:11;;;;;;;4.38;2.95;;;;;;;23.17;42.35;100658.38;4214455;28;20036;-62
2022/10/17 07:53:13;;;;;;;5.47;2.92;;;;;;;23.16;42.33;100667.88;4214230;28;20131;-62
2022/10/17 07:55:14;;;;;;;3.65;2.88;;;;;;;23.17;42.27;100663.94;4213064;28;20111;-62
2022/10/17 07:57:21;;;;;;;3.78;3.10;;;;;;;23.10;42.79;100643.97;4214290;28;20032;-62
2022/10/17 07:59:23;;;;;;;4.18;3.03;;;;;;;23.18;42.60;100648.84;4214140;28;20409;-61
2022/10/17 08:01:24;;;;;;;3.63;2.70;;;;;;;23.19;42.57;100656.13;4198735;28;20040;-61
2022/10/17 08:03:26;;;;;;;4.65;2.83;;;;;;;23.18;42.86;100654.44;4211920;28;20043;-61
2022/10/17 08:05:31;;;;;;;3.35;2.70;;;;;;;23.18;42.53;100648.84;4213628;28;20434;-62
2022/10/17 08:07:32;;;;;;;;;;;;;;;23.15;42.92;100646.69;4214167;28;20076;-62
2022/10/17 08:09:36;;;;;;;4.03;2.90;;;;;;;23.23;42.35;100656.31;4214061;28;19923;-62
2022/10/17 08:11:37;;;;;;;5.70;2.85;;;;;;;23.21;42.66;100648.25;4213266;28;20036;-62
2022/10/17 08:13:40;;;;;;;4.70;2.75;;;;;;;23.20;42.56;100651.34;4213761;28;20081;-61
2022/10/17 08:15:41;;;;;;;4.70;2.97;;;;;;;23.19;42.61;100661.69;4213914;28;20565;-62
2022/10/17 08:17:42;;;;;;;3.83;3.00;;;;;;;23.19;42.84;100660.88;4207544;28;20560;-61
2022/10/17 08:19:44;;;;;;;4.60;3.00;;;;;;;23.18;42.98;100653.59;4200841;28;20044;-62
2022/10/17 08:21:48;;;;;;;5.05;2.85;;;;;;;23.17;42.74;100649.97;4200608;28;20110;-62
2022/10/17 08:23:50;;;;;;;4.15;2.72;;;;;;;23.19;42.67;100649.69;4200547;28;20094;-62
2022/10/17 08:25:53;;;;;;;5.25;2.72;;;;;;;23.19;42.63;100653.31;4200087;28;20475;-62
2022/10/17 08:27:54;;;;;;;3.95;2.83;;;;;;;23.19;42.91;100650.53;4200634;28;20045;-62
2022/10/17 08:29:59;;;;;;;3.25;2.75;;;;;;;23.20;42.86;100646.59;4201176;28;20037;-62
2022/10/17 08:32:00;;;;;;;3.42;2.72;;;;;;;23.20;42.58;100663.34;4200804;28;20074;-62
2022/10/17 08:34:04;;;;;;;3.38;2.88;;;;;;;23.19;42.76;100653.31;4200145;28;20473;-62
2022/10/17 08:36:07;;;;;;;4.50;2.63;;;;;;;23.20;42.70;100660.56;4199922;28;20044;-62
2022/10/17 08:38:11;;;;;;;3.70;2.83;;;;;;;23.21;42.71;100648.25;4183591;28;20098;-62
2022/10/17 08:40:25;;;;;;;5.22;2.80;;;;;;;23.19;42.98;100656.13;4183832;28;20446;-62
2022/10/17 08:42:26;;;;;;;3.47;2.60;;;;;;;23.22;42.73;100649.91;4183666;28;20090;-62
2022/10/17 08:44:42;;;;;;;4.45;3.10;;;;;;;23.21;42.77;100650.22;4183420;28;20037;-62
2022/10/17 08:46:51;;;;;;;4.38;2.88;;;;;;;23.21;42.81;100647.44;4196434;28;20410;-62
2022/10/17 08:48:52;;;;;;;4.05;3.17;;;;;;;23.15;43.07;100641.09;4200238;28;20041;-62
2022/10/17 08:51:15;;;;;;;4.32;3.00;;;;;;;23.18;42.89;100642.44;4199906;28;20133;-62
2022/10/17 08:53:35;;;;;;;5.22;2.65;;;;;;;23.11;43.16;100631.66;4199501;28;20044;-62
2022/10/17 08:55:44;;;;;;;3.80;2.75;;;;;;;23.20;43.24;100646.59;4199089;28;20153;-62
2022/10/17 08:57:47;;;;;;;4.18;2.55;;;;;;;23.20;42.96;100643.81;4199416;28;20090;-62
2022/10/17 08:59:51;;;;;;;3.78;2.60;;;;;;;23.20;43.01;100641.00;4199716;28;20044;-62
2022/10/17 09:02:37;;;;;;;4.35;2.40;;;;;;;23.18;42.94;100646.06;4199747;28;20106;-62
2022/10/17 09:05:07;;;;;;;5.18;3.25;;;;;;;23.19;42.98;100650.53;4159370;28;20041;-62
2022/10/17 09:07:20;;;;;;;4.32;2.78;;;;;;;23.22;42.86;100649.91;4182612;28;20041;-62
2022/10/17 09:09:54;;;;;;;4.25;2.70;;;;;;;23.19;43.18;100642.16;4183336;28;20106;-62
2022/10/17 09:12:40;;;;;;;2.80;2.50;;;;;;;23.20;42.92;100645.78;4182977;28;20041;-62
2022/10/17 09:15:07;;;;;;;3.42;2.38;;;;;;;23.20;42.90;100641.00;4171924;28;20049;-62
2022/10/17 09:17:28;;;;;;;3.10;2.63;;;;;;;23.23;42.85;100637.63;4183228;28;20083;-62
2022/10/17 09:19:34;;;;;;;3.75;2.80;;;;;;;23.23;42.86;100643.22;4185600;28;20179;-62
2022/10/17 09:22:05;;;;;;;3.53;2.67;;;;;;;23.21;42.93;100650.22;4198281;28;20040;-62
2022/10/17 09:24:24;;;;;;;3.92;2.95;;;;;;;23.20;43.16;100646.59;4194828;28;20045;-62
2022/10/17 09:26:27;;;;;;;3.30;2.78;;;;;;;23.22;43.09;100649.91;4199598;28;20052;-62
2022/10/17 09:28:34;;;;;;;4.30;2.70;;;;;;;23.20;43.31;100635.44;4198328;28;20049;-62
2022/10/17 09:30:42;;;;;;;4.35;2.88;;;;;;;23.20;43.26;100641.00;4199103;28;20365;-62
2022/10/17 09:32:46;;;;;;;4.00;2.70;;;;;;;23.20;43.27;100641.00;4197090;28;20093;-62
2022/10/17 09:34:48;;;;;;;3.78;3.05;;;;;;;22.95;43.41;100600.38;4197180;28;20032;-62
2022/10/17 09:36:51;;;;;;;3.78;2.60;;;;;;;23.21;43.08;100636.25;4198079;28;20036;-62
2022/10/17 09:38:55;;;;;;;4.35;2.30;;;;;;;23.21;43.31;100645.47;4196207;28;20102;-62
2022/10/17 09:41:02;;;;;;;4.43;2.75;;;;;;;23.21;43.26;100642.66;4198172;28;20426;-62
2022/10/17 09:43:06;;;;;;;4.30;2.20;;;;;;;23.21;43.25;100651.03;4199139;28;20047;-62
2022/10/17 09:45:23;;;;;;;3.88;2.63;;;;;;;23.19;43.39;100650.53;4197988;28;20113;-62